sensor_id;sensor_type;location;lat;lon;timestamp;pressure;altitude;pressure_sealevel;temperature;humidity
53506;BME280;39388;50.936;6.848;2023-02-18T00:01:30;101755.81;;;12.35;82.33
53506;BME280;39388;50.936;6.848;2023-02-18T00:04:00;101740.25;;;12.28;82.37
53506;BME280;39388;50.936;6.848;2023-02-18T00:06:33;101733.38;;;12.30;82.67
53506;BME280;39388;50.936;6.848;2023-02-18T00:09:04;101737.72;;;12.32;82.77
53506;BME280;39388;50.936;6.848;2023-02-18T00:11:36;101739.44;;;12.33;82.44
53506;BME280;39388;50.936;6.848;2023-02-18T00:14:10;101722.16;;;12.28;82.53
53506;BME280;39388;50.936;6.848;2023-02-18T00:16:41;101735.13;;;12.34;82.39
53506;BME280;39388;50.936;6.848;2023-02-18T00:19:15;101732.56;;;12.37;82.61
53506;BME280;39388;50.936;6.848;2023-02-18T00:21:46;101724.75;;;12.28;82.77
53506;BME280;39388;50.936;6.848;2023-02-18T00:24:17;101718.72;;;12.30;82.69
53506;BME280;39388;50.936;6.848;2023-02-18T00:26:52;101721.28;;;12.29;82.78
53506;BME280;39388;50.936;6.848;2023-02-18T00:29:22;101729.97;;;12.32;82.81
53506;BME280;39388;50.936;6.848;2023-02-18T00:31:53;101723.88;;;12.29;82.57
53506;BME280;39388;50.936;6.848;2023-02-18T00:34:23;101730.84;;;12.34;82.72
53506;BME280;39388;50.936;6.848;2023-02-18T00:36:54;101699.72;;;12.22;82.87
53506;BME280;39388;50.936;6.848;2023-02-18T00:39:24;101695.44;;;12.25;83.21
53506;BME280;39388;50.936;6.848;2023-02-18T00:41:55;101706.66;;;12.34;82.91
53506;BME280;39388;50.936;6.848;2023-02-18T00:44:25;101695.44;;;12.27;83.12
53506;BME280;39388;50.936;6.848;2023-02-18T00:46:56;101700.63;;;12.27;83.06
53506;BME280;39388;50.936;6.848;2023-02-18T00:49:26;101692.00;;;12.33;83.20
53506;BME280;39388;50.936;6.848;2023-02-18T00:51:56;101694.56;;;12.30;83.27
53506;BME280;39388;50.936;6.848;2023-02-18T00:54:27;101699.75;;;12.28;83.00
53506;BME280;39388;50.936;6.848;2023-02-18T00:56:57;101702.34;;;12.33;83.28
53506;BME280;39388;50.936;6.848;2023-02-18T00:59:28;101695.47;;;12.30;83.03
53506;BME280;39388;50.936;6.848;2023-02-18T01:01:58;101680.78;;;12.28;83.51
53506;BME280;39388;50.936;6.848;2023-02-18T01:04:28;101688.56;;;12.31;83.22
53506;BME280;39388;50.936;6.848;2023-02-18T01:06:59;101689.44;;;12.33;83.57
53506;BME280;39388;50.936;6.848;2023-02-18T01:09:29;101686.81;;;12.30;83.27
53506;BME280;39388;50.936;6.848;2023-02-18T01:11:59;101684.25;;;12.27;83.35
53506;BME280;39388;50.936;6.848;2023-02-18T01:14:30;101682.53;;;12.32;83.34
53506;BME280;39388;50.936;6.848;2023-02-18T01:17:00;101658.38;;;12.23;83.29
53506;BME280;39388;50.936;6.848;2023-02-18T01:19:31;101670.44;;;12.28;83.62
53506;BME280;39388;50.936;6.848;2023-02-18T01:22:01;101674.75;;;12.29;83.58
53506;BME280;39388;50.936;6.848;2023-02-18T01:24:32;101666.09;;;12.22;83.70
53506;BME280;39388;50.936;6.848;2023-02-18T01:27:03;101681.66;;;12.30;83.85
53506;BME280;39388;50.936;6.848;2023-02-18T01:29:33;101665.28;;;12.24;83.39
53506;BME280;39388;50.936;6.848;2023-02-18T01:32:03;101661.81;;;12.22;83.76
53506;BME280;39388;50.936;6.848;2023-02-18T01:34:34;101663.56;;;12.27;83.68
53506;BME280;39388;50.936;6.848;2023-02-18T01:37:04;101656.66;;;12.29;83.52
53506;BME280;39388;50.936;6.848;2023-02-18T01:39:35;101666.13;;;12.28;83.62
53506;BME280;39388;50.936;6.848;2023-02-18T01:42:05;101672.19;;;12.35;83.95
53506;BME280;39388;50.936;6.848;2023-02-18T01:44:35;101660.97;;;12.27;83.74
53506;BME280;39388;50.936;6.848;2023-02-18T01:47:06;101663.53;;;12.30;83.82
53506;BME280;39388;50.936;6.848;2023-02-18T01:49:37;101660.09;;;12.28;84.12
53506;BME280;39388;50.936;6.848;2023-02-18T01:52:17;101577.19;;;11.76;84.05
53506;BME280;39388;50.936;6.848;2023-02-18T01:54:56;101502.09;;;11.34;84.35
53506;BME280;39388;50.936;6.848;2023-02-18T01:57:35;101633.34;;;12.19;84.34
53506;BME280;39388;50.936;6.848;2023-02-18T02:00:18;101517.63;;;11.47;84.55
53506;BME280;39388;50.936;6.848;2023-02-18T02:03:05;101440.81;;;10.99;84.65
53506;BME280;39388;50.936;6.848;2023-02-18T02:05:46;101446.06;;;11.12;84.70
53506;BME280;39388;50.936;6.848;2023-02-18T02:08:21;101439.13;;;11.01;84.89
53506;BME280;39388;50.936;6.848;2023-02-18T02:14:40;101626.47;;;12.20;84.96
53506;BME280;39388;50.936;6.848;2023-02-18T02:35:48;101405.56;;;10.97;84.70
53506;BME280;39388;50.936;6.848;2023-02-18T02:38:41;101462.50;;;11.32;84.74
53506;BME280;39388;50.936;6.848;2023-02-18T02:41:43;101496.13;;;11.48;84.99
53506;BME280;39388;50.936;6.848;2023-02-18T02:44:41;101601.47;;;12.19;84.99
53506;BME280;39388;50.936;6.848;2023-02-18T02:48:05;101599.75;;;12.19;85.31
53506;BME280;39388;50.936;6.848;2023-02-18T02:58:29;101575.63;;;12.20;84.81
53506;BME280;39388;50.936;6.848;2023-02-18T03:16:35;101502.31;;;11.90;85.37
53506;BME280;39388;50.936;6.848;2023-02-18T03:19:19;101538.53;;;12.15;85.67
53506;BME280;39388;50.936;6.848;2023-02-18T03:22:19;101528.19;;;12.03;85.91
53506;BME280;39388;50.936;6.848;2023-02-18T03:24:52;101541.13;;;12.06;86.21
53506;BME280;39388;50.936;6.848;2023-02-18T03:27:32;101527.31;;;11.96;86.45
53506;BME280;39388;50.936;6.848;2023-02-18T03:30:13;101528.19;;;11.97;86.41
53506;BME280;39388;50.936;6.848;2023-02-18T03:32:47;101512.63;;;11.92;86.84
53506;BME280;39388;50.936;6.848;2023-02-18T03:35:18;101504.03;;;11.87;86.62
53506;BME280;39388;50.936;6.848;2023-02-18T03:37:56;101529.94;;;12.05;86.86
53506;BME280;39388;50.936;6.848;2023-02-18T03:40:30;101515.25;;;11.89;87.36
53506;BME280;39388;50.936;6.848;2023-02-18T03:43:01;101536.78;;;11.97;87.75
53506;BME280;39388;50.936;6.848;2023-02-18T03:45:32;101549.75;;;12.03;87.60
53506;BME280;39388;50.936;6.848;2023-02-18T03:48:02;101539.38;;;12.00;87.98
53506;BME280;39388;50.936;6.848;2023-02-18T03:50:33;101537.66;;;11.99;87.70
53506;BME280;39388;50.936;6.848;2023-02-18T03:53:03;101492.75;;;11.71;87.75
53506;BME280;39388;50.936;6.848;2023-02-18T03:55:33;101540.22;;;11.93;87.95
53506;BME280;39388;50.936;6.848;2023-02-18T03:58:04;101512.66;;;11.84;88.23
53506;BME280;39388;50.936;6.848;2023-02-18T04:00:34;101506.53;;;11.76;88.56
53506;BME280;39388;50.936;6.848;2023-02-18T04:03:05;101505.72;;;11.78;88.47
53506;BME280;39388;50.936;6.848;2023-02-18T04:05:35;101491.91;;;11.75;88.22
53506;BME280;39388;50.936;6.848;2023-02-18T04:08:05;101498.81;;;11.74;88.53
53506;BME280;39388;50.936;6.848;2023-02-18T04:10:36;101472.06;;;11.61;88.25
53506;BME280;39388;50.936;6.848;2023-02-18T04:13:06;101487.63;;;11.78;88.57
53506;BME280;39388;50.936;6.848;2023-02-18T04:15:36;101499.75;;;11.89;88.05
53506;BME280;39388;50.936;6.848;2023-02-18T04:18:07;101480.78;;;11.82;88.12
53506;BME280;39388;50.936;6.848;2023-02-18T04:20:37;101504.91;;;11.93;87.89
53506;BME280;39388;50.936;6.848;2023-02-18T04:23:07;101504.91;;;11.98;88.20
53506;BME280;39388;50.936;6.848;2023-02-18T04:25:38;101454.88;;;11.67;87.93
53506;BME280;39388;50.936;6.848;2023-02-18T04:28:09;101504.91;;;11.95;88.03
53506;BME280;39388;50.936;6.848;2023-02-18T04:30:45;101498.00;;;11.94;88.42
53506;BME280;39388;50.936;6.848;2023-02-18T04:33:16;101485.91;;;11.85;88.13
53506;BME280;39388;50.936;6.848;2023-02-18T04:35:46;101510.06;;;11.93;87.93
53506;BME280;39388;50.936;6.848;2023-02-18T04:38:16;101507.47;;;11.92;88.11
53506;BME280;39388;50.936;6.848;2023-02-18T04:40:47;101508.34;;;11.91;88.31
53506;BME280;39388;50.936;6.848;2023-02-18T04:43:17;101495.44;;;11.91;88.44
53506;BME280;39388;50.936;6.848;2023-02-18T04:45:48;101444.50;;;11.63;88.15
53506;BME280;39388;50.936;6.848;2023-02-18T04:48:19;101489.41;;;11.89;88.16
53506;BME280;39388;50.936;6.848;2023-02-18T04:50:49;101477.31;;;11.80;88.29
53506;BME280;39388;50.936;6.848;2023-02-18T04:53:20;101447.09;;;11.65;88.14
53506;BME280;39388;50.936;6.848;2023-02-18T04:55:50;101471.25;;;11.76;88.68
53506;BME280;39388;50.936;6.848;2023-02-18T04:58:21;101454.84;;;11.68;88.48
53506;BME280;39388;50.936;6.848;2023-02-18T05:00:51;101443.63;;;11.57;88.44
53506;BME280;39388;50.936;6.848;2023-02-18T05:03:23;101452.25;;;11.63;88.84
53506;BME280;39388;50.936;6.848;2023-02-18T05:05:53;101469.53;;;11.77;89.35
53506;BME280;39388;50.936;6.848;2023-02-18T05:08:24;101473.88;;;11.78;89.28
53506;BME280;39388;50.936;6.848;2023-02-18T05:10:55;101466.91;;;11.71;89.58
53506;BME280;39388;50.936;6.848;2023-02-18T05:13:25;101436.72;;;11.48;89.98
53506;BME280;39388;50.936;6.848;2023-02-18T05:15:55;101460.00;;;11.60;90.03
53506;BME280;39388;50.936;6.848;2023-02-18T05:18:26;101460.03;;;11.62;90.25
53506;BME280;39388;50.936;6.848;2023-02-18T05:20:56;101463.44;;;11.58;90.77
53506;BME280;39388;50.936;6.848;2023-02-18T05:23:26;101423.78;;;11.36;91.03
53506;BME280;39388;50.936;6.848;2023-02-18T05:25:57;101437.56;;;11.42;90.28
53506;BME280;39388;50.936;6.848;2023-02-18T05:28:27;101416.88;;;11.36;90.93
53506;BME280;39388;50.936;6.848;2023-02-18T05:30:58;101453.09;;;11.55;91.00
53506;BME280;39388;50.936;6.848;2023-02-18T05:33:28;101431.53;;;11.42;91.44
53506;BME280;39388;50.936;6.848;2023-02-18T05:35:58;101447.06;;;11.48;91.14
53506;BME280;39388;50.936;6.848;2023-02-18T05:38:29;101423.78;;;11.42;91.34
53506;BME280;39388;50.936;6.848;2023-02-18T07:23:19;101438.50;;;11.68;87.33
53506;BME280;39388;50.936;6.848;2023-02-18T07:34:52;101445.44;;;11.78;86.37
53506;BME280;39388;50.936;6.848;2023-02-18T07:37:22;101431.66;;;11.79;86.38
53506;BME280;39388;50.936;6.848;2023-02-18T07:39:53;101431.69;;;11.82;86.51
53506;BME280;39388;50.936;6.848;2023-02-18T07:42:26;101416.16;;;11.84;86.16
53506;BME280;39388;50.936;6.848;2023-02-18T07:48:24;101418.78;;;11.90;85.75
53506;BME280;39388;50.936;6.848;2023-02-18T07:50:54;101414.44;;;11.86;85.00
53506;BME280;39388;50.936;6.848;2023-02-18T07:53:24;101407.53;;;11.75;85.50
53506;BME280;39388;50.936;6.848;2023-02-18T07:55:57;101389.41;;;11.55;85.27
53506;BME280;39388;50.936;6.848;2023-02-18T07:58:31;101425.59;;;11.69;86.00
53506;BME280;39388;50.936;6.848;2023-02-18T08:01:07;101435.06;;;11.70;85.88
53506;BME280;39388;50.936;6.848;2023-02-18T08:03:38;101450.53;;;11.67;86.07
53506;BME280;39388;50.936;6.848;2023-02-18T08:06:19;101447.94;;;11.59;85.90
53506;BME280;39388;50.936;6.848;2023-02-18T08:08:50;101460.84;;;11.56;86.53
53506;BME280;39388;50.936;6.848;2023-02-18T08:11:20;101478.06;;;11.57;86.26
53506;BME280;39388;50.936;6.848;2023-02-18T08:13:50;101465.97;;;11.47;86.35
53506;BME280;39388;50.936;6.848;2023-02-18T08:16:21;101475.44;;;11.45;86.53
53506;BME280;39388;50.936;6.848;2023-02-18T08:18:51;101467.69;;;11.40;86.18
53506;BME280;39388;50.936;6.848;2023-02-18T08:21:24;101470.25;;;11.40;86.34
53506;BME280;39388;50.936;6.848;2023-02-18T08:23:57;101473.72;;;11.41;86.00
53506;BME280;39388;50.936;6.848;2023-02-18T08:26:27;101473.72;;;11.41;85.69
53506;BME280;39388;50.936;6.848;2023-02-18T08:28:58;101484.88;;;11.35;85.40
53506;BME280;39388;50.936;6.848;2023-02-18T08:31:29;101485.75;;;11.37;85.14
53506;BME280;39388;50.936;6.848;2023-02-18T08:34:00;101489.19;;;11.39;84.70
53506;BME280;39388;50.936;6.848;2023-02-18T08:36:32;101479.72;;;11.32;84.35
53506;BME280;39388;50.936;6.848;2023-02-18T08:39:03;101485.75;;;11.40;83.69
53506;BME280;39388;50.936;6.848;2023-02-18T08:41:34;101501.25;;;11.39;83.08
53506;BME280;39388;50.936;6.848;2023-02-18T08:44:04;101487.47;;;11.37;82.83
53506;BME280;39388;50.936;6.848;2023-02-18T08:46:34;101486.59;;;11.31;82.17
53506;BME280;39388;50.936;6.848;2023-02-18T08:49:05;101485.75;;;11.36;82.44
53506;BME280;39388;50.936;6.848;2023-02-18T08:51:35;101487.47;;;11.38;82.28
53506;BME280;39388;50.936;6.848;2023-02-18T08:54:05;101473.69;;;11.39;81.76
53506;BME280;39388;50.936;6.848;2023-02-18T08:56:36;101472.84;;;11.39;81.36
53506;BME280;39388;50.936;6.848;2023-02-18T08:59:06;101471.16;;;11.41;81.36
53506;BME280;39388;50.936;6.848;2023-02-18T09:01:36;101479.72;;;11.38;81.76
53506;BME280;39388;50.936;6.848;2023-02-18T09:04:07;101471.97;;;11.38;81.51
53506;BME280;39388;50.936;6.848;2023-02-18T09:06:38;101484.03;;;11.38;81.70
53506;BME280;39388;50.936;6.848;2023-02-18T09:09:08;101485.75;;;11.40;81.23
53506;BME280;39388;50.936;6.848;2023-02-18T09:11:39;101472.00;;;11.41;81.24
53506;BME280;39388;50.936;6.848;2023-02-18T09:14:10;101475.44;;;11.42;80.91
53506;BME280;39388;50.936;6.848;2023-02-18T09:16:41;101474.59;;;11.49;80.88
53506;BME280;39388;50.936;6.848;2023-02-18T09:19:11;101492.69;;;11.52;80.62
53506;BME280;39388;50.936;6.848;2023-02-18T09:21:42;101449.63;;;11.43;81.01
53506;BME280;39388;50.936;6.848;2023-02-18T09:24:13;101463.41;;;11.56;80.91
53506;BME280;39388;50.936;6.848;2023-02-18T09:26:43;101466.00;;;11.56;80.85
53506;BME280;39388;50.936;6.848;2023-02-18T09:29:13;101453.09;;;11.56;80.88
53506;BME280;39388;50.936;6.848;2023-02-18T09:31:44;101467.75;;;11.60;80.47
53506;BME280;39388;50.936;6.848;2023-02-18T09:34:14;101472.09;;;11.68;80.58
53506;BME280;39388;50.936;6.848;2023-02-18T09:36:45;101466.91;;;11.69;80.07
53506;BME280;39388;50.936;6.848;2023-02-18T09:39:15;101469.50;;;11.71;79.76
53506;BME280;39388;50.936;6.848;2023-02-18T09:41:49;101468.63;;;11.72;79.94
53506;BME280;39388;50.936;6.848;2023-02-18T09:44:26;101446.25;;;11.68;79.75
53506;BME280;39388;50.936;6.848;2023-02-18T09:49:59;101454.00;;;11.74;79.25
53506;BME280;39388;50.936;6.848;2023-02-18T09:52:34;101432.50;;;11.73;79.30
53506;BME280;39388;50.936;6.848;2023-02-18T09:55:37;101423.88;;;11.74;79.00
53506;BME280;39388;50.936;6.848;2023-02-18T09:58:15;101426.44;;;11.76;79.35
53506;BME280;39388;50.936;6.848;2023-02-18T10:01:04;101423.00;;;11.77;78.85
53506;BME280;39388;50.936;6.848;2023-02-18T10:03:36;101416.16;;;11.81;78.49
53506;BME280;39388;50.936;6.848;2023-02-18T10:06:10;101397.22;;;11.82;78.64
53506;BME280;39388;50.936;6.848;2023-02-18T10:08:44;101405.84;;;11.87;78.33
53506;BME280;39388;50.936;6.848;2023-02-18T10:11:39;101398.09;;;11.94;78.27
53506;BME280;39388;50.936;6.848;2023-02-18T10:14:12;101411.88;;;12.01;78.25
53506;BME280;39388;50.936;6.848;2023-02-18T10:16:43;101409.28;;;12.03;78.18
53506;BME280;39388;50.936;6.848;2023-02-18T10:19:34;101403.28;;;12.05;77.83
53506;BME280;39388;50.936;6.848;2023-02-18T10:22:08;101404.13;;;12.06;78.23
53506;BME280;39388;50.936;6.848;2023-02-18T10:24:44;101405.84;;;12.08;77.65
53506;BME280;39388;50.936;6.848;2023-02-18T10:27:22;101403.25;;;12.15;78.22
53506;BME280;39388;50.936;6.848;2023-02-18T10:32:36;101398.06;;;12.21;78.00
53506;BME280;39388;50.936;6.848;2023-02-18T10:35:46;101417.03;;;12.18;77.84
53506;BME280;39388;50.936;6.848;2023-02-18T10:46:37;101409.28;;;12.15;77.76
53506;BME280;39388;50.936;6.848;2023-02-18T10:51:59;101402.41;;;12.16;77.38
53506;BME280;39388;50.936;6.848;2023-02-18T10:57:27;101401.53;;;12.20;77.70
53506;BME280;39388;50.936;6.848;2023-02-18T11:00:14;101413.56;;;12.29;77.34
53506;BME280;39388;50.936;6.848;2023-02-18T11:02:45;101417.91;;;12.27;77.40
53506;BME280;39388;50.936;6.848;2023-02-18T11:05:24;101416.16;;;12.21;77.94
53506;BME280;39388;50.936;6.848;2023-02-18T11:07:56;101421.34;;;12.15;78.71
53506;BME280;39388;50.936;6.848;2023-02-18T11:10:38;101436.00;;;12.13;79.52
53506;BME280;39388;50.936;6.848;2023-02-18T11:13:12;101444.63;;;12.05;79.73
53506;BME280;39388;50.936;6.848;2023-02-18T11:16:05;101437.72;;;11.98;80.34
53506;BME280;39388;50.936;6.848;2023-02-18T11:18:41;101437.69;;;12.00;80.48
53506;BME280;39388;50.936;6.848;2023-02-18T11:21:44;101440.31;;;12.04;80.60
53506;BME280;39388;50.936;6.848;2023-02-18T11:24:16;101442.03;;;12.05;80.77
53506;BME280;39388;50.936;6.848;2023-02-18T11:26:46;101441.16;;;12.13;80.55
53506;BME280;39388;50.936;6.848;2023-02-18T11:29:25;101435.97;;;12.14;81.07
53506;BME280;39388;50.936;6.848;2023-02-18T11:31:59;101431.69;;;12.18;81.36
53506;BME280;39388;50.936;6.848;2023-02-18T11:34:31;101430.81;;;12.17;81.46
53506;BME280;39388;50.936;6.848;2023-02-18T11:37:11;101444.59;;;12.16;81.38
53506;BME280;39388;50.936;6.848;2023-02-18T11:39:49;101443.75;;;12.06;81.65
53506;BME280;39388;50.936;6.848;2023-02-18T11:42:22;101431.69;;;11.99;81.72
53506;BME280;39388;50.936;6.848;2023-02-18T11:44:58;101460.13;;;12.02;82.12
53506;BME280;39388;50.936;6.848;2023-02-18T11:47:34;101444.59;;;11.96;82.64
53506;BME280;39388;50.936;6.848;2023-02-18T11:52:42;101427.34;;;11.87;82.88
53506;BME280;39388;50.936;6.848;2023-02-18T11:55:14;101442.03;;;11.94;83.02
53506;BME280;39388;50.936;6.848;2023-02-18T11:58:00;101433.41;;;11.91;82.68
53506;BME280;39388;50.936;6.848;2023-02-18T12:05:52;101434.25;;;11.81;83.79
53506;BME280;39388;50.936;6.848;2023-02-18T12:08:26;101438.56;;;11.80;84.01
53506;BME280;39388;50.936;6.848;2023-02-18T12:11:08;101446.25;;;11.77;84.09
53506;BME280;39388;50.936;6.848;2023-02-18T12:13:50;101437.69;;;11.78;84.20
53506;BME280;39388;50.936;6.848;2023-02-18T12:22:15;101430.81;;;11.80;84.56
53506;BME280;39388;50.936;6.848;2023-02-18T12:24:53;101437.69;;;11.81;84.74
53506;BME280;39388;50.936;6.848;2023-02-18T12:27:34;101450.63;;;11.83;84.67
53506;BME280;39388;50.936;6.848;2023-02-18T12:52:18;101435.13;;;11.98;84.81
53506;BME280;39388;50.936;6.848;2023-02-18T13:12:43;101418.75;;;12.12;83.87
53506;BME280;39388;50.936;6.848;2023-02-18T13:15:39;101426.53;;;12.10;84.01
53506;BME280;39388;50.936;6.848;2023-02-18T13:18:20;101434.28;;;12.10;84.23
53506;BME280;39388;50.936;6.848;2023-02-18T13:21:03;101429.97;;;12.12;84.26
53506;BME280;39388;50.936;6.848;2023-02-18T13:26:13;101439.47;;;12.05;84.24
53506;BME280;39388;50.936;6.848;2023-02-18T13:34:19;101447.19;;;12.08;84.37
53506;BME280;39388;50.936;6.848;2023-02-18T13:40:05;101427.38;;;12.07;85.04
53506;BME280;39388;50.936;6.848;2023-02-18T13:42:43;101434.25;;;12.08;84.87
53506;BME280;39388;50.936;6.848;2023-02-18T13:45:32;101424.78;;;12.07;84.98
53506;BME280;39388;50.936;6.848;2023-02-18T13:48:21;101420.47;;;12.09;85.21
53506;BME280;39388;50.936;6.848;2023-02-18T13:50:53;101429.13;;;12.18;84.91
53506;BME280;39388;50.936;6.848;2023-02-18T13:56:00;101428.25;;;12.19;84.46
53506;BME280;39388;50.936;6.848;2023-02-18T13:58:36;101425.66;;;12.17;84.45
53506;BME280;39388;50.936;6.848;2023-02-18T14:01:37;101417.91;;;12.11;85.20
53506;BME280;39388;50.936;6.848;2023-02-18T14:07:48;101436.00;;;12.09;85.14
53506;BME280;39388;50.936;6.848;2023-02-18T14:24:46;101423.94;;;12.05;85.49
53506;BME280;39388;50.936;6.848;2023-02-18T14:27:16;101398.94;;;11.87;85.37
53506;BME280;39388;50.936;6.848;2023-02-18T14:29:50;101411.88;;;11.89;85.56
53506;BME280;39388;50.936;6.848;2023-02-18T14:32:21;101374.78;;;11.70;85.57
53506;BME280;39388;50.936;6.848;2023-02-18T14:38:32;101420.47;;;12.06;84.93
53506;BME280;39388;50.936;6.848;2023-02-18T14:41:14;101409.28;;;11.97;85.08
53506;BME280;39388;50.936;6.848;2023-02-18T14:46:45;101387.72;;;11.81;85.22
53506;BME280;39388;50.936;6.848;2023-02-18T14:49:35;101394.63;;;11.89;85.05
53506;BME280;39388;50.936;6.848;2023-02-18T14:54:43;101391.19;;;11.86;85.22
53506;BME280;39388;50.936;6.848;2023-02-18T14:57:16;101390.31;;;11.91;85.64
53506;BME280;39388;50.936;6.848;2023-02-18T14:59:56;101427.38;;;12.09;85.58
53506;BME280;39388;50.936;6.848;2023-02-18T15:02:28;101405.84;;;12.04;85.48
53506;BME280;39388;50.936;6.848;2023-02-18T15:05:20;101401.53;;;12.01;85.56
53506;BME280;39388;50.936;6.848;2023-02-18T15:08:04;101398.94;;;12.03;85.64
53506;BME280;39388;50.936;6.848;2023-02-18T15:10:55;101412.75;;;12.11;85.46
53506;BME280;39388;50.936;6.848;2023-02-18T15:13:27;101414.44;;;12.10;85.58
53506;BME280;39388;50.936;6.848;2023-02-18T15:16:07;101371.38;;;11.82;85.61
53506;BME280;39388;50.936;6.848;2023-02-18T15:18:53;101417.91;;;12.08;86.06
53506;BME280;39388;50.936;6.848;2023-02-18T15:21:34;101405.84;;;11.99;85.65
53506;BME280;39388;50.936;6.848;2023-02-18T15:24:24;101404.97;;;12.06;85.96
53506;BME280;39388;50.936;6.848;2023-02-18T15:26:58;101378.25;;;11.92;85.52
53506;BME280;39388;50.936;6.848;2023-02-18T15:29:36;101414.44;;;12.15;85.75
53506;BME280;39388;50.936;6.848;2023-02-18T15:32:14;101406.72;;;12.20;85.67
53506;BME280;39388;50.936;6.848;2023-02-18T15:34:49;101397.22;;;12.11;85.51
53506;BME280;39388;50.936;6.848;2023-02-18T15:37:20;101392.06;;;12.13;85.69
53506;BME280;39388;50.936;6.848;2023-02-18T15:39:51;101397.22;;;12.09;85.64
53506;BME280;39388;50.936;6.848;2023-02-18T15:42:29;101416.16;;;12.24;85.46
53506;BME280;39388;50.936;6.848;2023-02-18T15:48:00;101395.50;;;12.16;85.29
53506;BME280;39388;50.936;6.848;2023-02-18T15:50:36;101382.59;;;12.02;84.97
53506;BME280;39388;50.936;6.848;2023-02-18T15:53:10;101390.31;;;12.08;85.35
53506;BME280;39388;50.936;6.848;2023-02-18T15:55:46;101387.75;;;12.02;85.21
53506;BME280;39388;50.936;6.848;2023-02-18T15:58:30;101390.31;;;11.96;85.60
53506;BME280;39388;50.936;6.848;2023-02-18T16:01:04;101413.59;;;12.12;85.61
53506;BME280;39388;50.936;6.848;2023-02-18T16:06:20;101418.78;;;12.05;85.83
53506;BME280;39388;50.936;6.848;2023-02-18T16:11:28;101412.72;;;11.89;85.83
53506;BME280;39388;50.936;6.848;2023-02-18T16:14:00;101398.06;;;11.81;85.91
53506;BME280;39388;50.936;6.848;2023-02-18T16:16:35;101413.56;;;11.85;86.30
53506;BME280;39388;50.936;6.848;2023-02-18T16:19:22;101393.72;;;11.73;86.08
53506;BME280;39388;50.936;6.848;2023-02-18T16:21:53;101417.88;;;11.86;86.04
53506;BME280;39388;50.936;6.848;2023-02-18T16:24:28;101432.56;;;11.97;86.21
53506;BME280;39388;50.936;6.848;2023-02-18T16:27:00;101423.06;;;11.88;86.36
53506;BME280;39388;50.936;6.848;2023-02-18T16:29:39;101418.75;;;11.79;86.40
53506;BME280;39388;50.936;6.848;2023-02-18T16:32:10;101372.16;;;11.53;86.38
53506;BME280;39388;50.936;6.848;2023-02-18T16:34:40;101427.38;;;11.81;86.50
53506;BME280;39388;50.936;6.848;2023-02-18T16:37:13;101401.47;;;11.69;86.27
53506;BME280;39388;50.936;6.848;2023-02-18T16:40:02;101398.88;;;11.70;86.63
53506;BME280;39388;50.936;6.848;2023-02-18T16:42:33;101428.25;;;11.88;86.31
53506;BME280;39388;50.936;6.848;2023-02-18T16:45:03;101413.56;;;11.79;86.49
53506;BME280;39388;50.936;6.848;2023-02-18T16:47:35;101377.34;;;11.57;86.73
53506;BME280;39388;50.936;6.848;2023-02-18T16:50:13;101391.16;;;11.69;86.77
53506;BME280;39388;50.936;6.848;2023-02-18T16:52:47;101428.25;;;11.88;86.80
53506;BME280;39388;50.936;6.848;2023-02-18T16:55:20;101389.44;;;11.75;86.83
53506;BME280;39388;50.936;6.848;2023-02-18T16:57:51;101378.19;;;11.59;86.44
53506;BME280;39388;50.936;6.848;2023-02-18T17:00:22;101417.00;;;11.79;86.97
53506;BME280;39388;50.936;6.848;2023-02-18T17:02:55;101397.16;;;11.71;86.79
53506;BME280;39388;50.936;6.848;2023-02-18T17:05:30;101408.38;;;11.74;87.04
53506;BME280;39388;50.936;6.848;2023-02-18T17:08:20;101397.13;;;11.63;86.76
53506;BME280;39388;50.936;6.848;2023-02-18T17:10:55;101408.34;;;11.68;87.14
53506;BME280;39388;50.936;6.848;2023-02-18T17:13:27;101407.50;;;11.69;87.05
53506;BME280;39388;50.936;6.848;2023-02-18T17:15:58;101435.97;;;11.85;87.03
53506;BME280;39388;50.936;6.848;2023-02-18T17:18:28;101418.69;;;11.73;86.84
53506;BME280;39388;50.936;6.848;2023-02-18T17:20:59;101355.78;;;11.35;86.58
53506;BME280;39388;50.936;6.848;2023-02-18T17:23:29;101433.41;;;11.83;86.71
53506;BME280;39388;50.936;6.848;2023-02-18T17:25:59;101434.25;;;11.87;86.72
53506;BME280;39388;50.936;6.848;2023-02-18T17:28:30;101402.31;;;11.71;86.71
53506;BME280;39388;50.936;6.848;2023-02-18T17:31:00;101386.81;;;11.58;86.71
53506;BME280;39388;50.936;6.848;2023-02-18T17:33:30;101425.66;;;11.83;86.49
53506;BME280;39388;50.936;6.848;2023-02-18T17:36:01;101365.25;;;11.44;86.73
53506;BME280;39388;50.936;6.848;2023-02-18T17:38:31;101444.59;;;11.90;86.29
53506;BME280;39388;50.936;6.848;2023-02-18T17:41:04;101373.03;;;11.47;86.38
53506;BME280;39388;50.936;6.848;2023-02-18T17:43:34;101396.31;;;11.69;86.30
53506;BME280;39388;50.936;6.848;2023-02-18T17:46:10;101381.63;;;11.54;86.46
53506;BME280;39388;50.936;6.848;2023-02-18T17:48:43;101343.72;;;11.29;86.29
53506;BME280;39388;50.936;6.848;2023-02-18T17:51:22;101385.97;;;11.53;86.65
53506;BME280;39388;50.936;6.848;2023-02-18T17:53:53;101333.34;;;11.17;86.74
53506;BME280;39388;50.936;6.848;2023-02-18T17:56:24;101383.34;;;11.52;86.77
53506;BME280;39388;50.936;6.848;2023-02-18T17:58:54;101301.50;;;11.06;86.90
53506;BME280;39388;50.936;6.848;2023-02-18T18:01:24;101353.19;;;11.35;86.97
53506;BME280;39388;50.936;6.848;2023-02-18T18:03:55;101348.88;;;11.28;87.26
53506;BME280;39388;50.936;6.848;2023-02-18T18:06:25;101390.22;;;11.49;87.52
53506;BME280;39388;50.936;6.848;2023-02-18T18:08:55;101347.13;;;11.21;87.68
53506;BME280;39388;50.936;6.848;2023-02-18T18:11:26;101371.25;;;11.29;88.09